createdAt,value
2022-11-18T00:09:58.008Z,1.20
2022-11-18T00:20:02.455Z,1.50
2022-11-18T00:30:06.152Z,1.30
2022-11-18T00:40:12.022Z,1.40
2022-11-18T00:50:15.302Z,1.20
2022-11-18T01:00:20.210Z,1.90
2022-11-18T01:10:23.212Z,1.30
2022-11-18T01:20:27.674Z,1.00
2022-11-18T01:30:30.722Z,1.30
2022-11-18T01:40:36.299Z,1.27
2022-11-18T01:50:42.962Z,1.37
2022-11-18T02:00:47.294Z,1.40
2022-11-18T02:10:50.280Z,1.03
2022-11-18T02:20:58.943Z,1.27
2022-11-18T02:31:08.629Z,1.50
2022-11-18T02:41:17.383Z,1.30
2022-11-18T02:51:26.317Z,1.53
2022-11-18T03:01:32.792Z,1.25
2022-11-18T03:11:45.551Z,1.20
2022-11-18T03:21:56.413Z,1.17
2022-11-18T03:32:06.999Z,1.23
2022-11-18T03:42:16.718Z,1.30
2022-11-18T03:52:25.442Z,1.00
2022-11-18T04:02:31.087Z,0.80
2022-11-18T04:12:40.539Z,1.10
2022-11-18T04:22:43.728Z,1.00
2022-11-18T04:32:48.364Z,1.07
2022-11-18T04:42:51.170Z,1.00
2022-11-18T04:52:55.292Z,1.20
2022-11-18T05:02:58.169Z,1.10
2022-11-18T05:13:02.515Z,1.07
2022-11-18T05:23:05.203Z,1.23
2022-11-18T05:33:09.418Z,1.47
2022-11-18T05:43:12.791Z,1.40
2022-11-18T05:53:18.333Z,2.27
2022-11-18T06:03:30.547Z,2.00
2022-11-18T06:13:39.902Z,2.17
2022-11-18T06:23:44.595Z,2.08
2022-11-18T06:33:48.921Z,1.87
2022-11-18T06:43:51.918Z,2.07
2022-11-18T06:53:56.458Z,1.70
2022-11-18T07:04:00.921Z,2.07
2022-11-18T07:14:05.102Z,2.20
2022-11-18T07:24:09.734Z,1.80
2022-11-18T07:34:14.650Z,2.27
2022-11-18T07:44:18.442Z,2.90
2022-11-18T07:54:22.685Z,2.97
2022-11-18T08:04:25.546Z,1.83
2022-11-18T08:14:30.436Z,2.20
2022-11-18T08:24:33.401Z,1.63
2022-11-18T08:34:39.276Z,1.73
2022-11-18T08:44:42.373Z,1.67
2022-11-18T08:54:46.705Z,1.87
2022-11-18T09:04:50.609Z,1.80
2022-11-18T09:25:18.020Z,2.33
2022-11-18T09:35:23.994Z,0.90
2022-11-18T09:45:34.385Z,0.90
2022-11-18T09:55:41.185Z,0.87
2022-11-18T10:05:49.578Z,0.70
2022-11-18T10:16:05.088Z,0.63
2022-11-18T10:26:08.166Z,0.67
2022-11-18T10:36:28.232Z,0.60
2022-11-18T10:46:33.250Z,0.50
2022-11-18T11:01:48.002Z,0.50
2022-11-18T11:07:26.163Z,0.60
2022-11-18T11:17:35.292Z,0.70
2022-11-18T11:38:19.517Z,0.60
2022-11-18T11:48:32.937Z,0.70
2022-11-18T11:58:58.314Z,0.67
2022-11-18T12:09:09.364Z,0.80
2022-11-18T12:19:16.841Z,0.70
2022-11-18T12:29:24.839Z,0.53
2022-11-18T12:39:51.621Z,0.60
2022-11-18T12:50:15.087Z,0.70
2022-11-18T13:00:28.612Z,0.53
2022-11-18T13:10:35.829Z,0.70
2022-11-18T13:20:41.064Z,0.50
2022-11-18T13:30:53.467Z,0.50
2022-11-18T13:41:07.771Z,1.13
2022-11-18T13:51:13.666Z,0.50
2022-11-18T14:01:20.786Z,0.70
2022-11-18T14:11:38.648Z,0.57
2022-11-18T14:21:41.697Z,0.60
2022-11-18T14:32:33.114Z,0.60
2022-11-18T14:43:32.002Z,0.53
2022-11-18T14:55:16.781Z,0.80
2022-11-18T15:06:29.062Z,0.80
2022-11-18T15:17:55.736Z,0.77
2022-11-18T15:28:49.840Z,0.70
2022-11-18T15:51:11.956Z,0.80
2022-11-18T16:02:15.224Z,1.37
2022-11-18T16:25:20.111Z,0.70
2022-11-18T16:36:31.378Z,1.10
2022-11-18T16:46:46.585Z,0.93
2022-11-18T16:56:50.624Z,1.20
2022-11-18T17:06:55.398Z,1.23
2022-11-18T17:17:01.528Z,1.07
2022-11-18T17:27:06.179Z,1.70
2022-11-18T17:37:09.368Z,1.40
2022-11-18T17:47:13.841Z,1.67
2022-11-18T17:57:16.882Z,1.50
2022-11-18T18:07:21.382Z,1.50
2022-11-18T18:17:24.468Z,2.60
2022-11-18T18:27:28.847Z,2.63
2022-11-18T18:37:31.931Z,2.10
2022-11-18T18:47:36.586Z,1.57
2022-11-18T18:57:39.631Z,2.00
2022-11-18T19:07:44.366Z,2.70
2022-11-18T19:17:47.949Z,2.20
2022-11-18T19:27:52.231Z,2.33
2022-11-18T19:37:55.266Z,2.00
2022-11-18T19:48:02.173Z,1.73
2022-11-18T19:58:05.260Z,2.23
2022-11-18T20:08:09.520Z,3.07
2022-11-18T20:18:12.834Z,2.50
2022-11-18T20:28:17.245Z,3.00
2022-11-18T20:38:20.218Z,3.00
2022-11-18T20:48:24.771Z,3.57
2022-11-18T20:58:27.856Z,3.97
2022-11-18T21:08:32.188Z,4.37
2022-11-18T21:18:35.242Z,4.43
2022-11-18T21:28:39.478Z,4.30
2022-11-18T21:38:42.660Z,3.07
2022-11-18T21:48:47.239Z,1.90
2022-11-18T21:58:50.772Z,3.13
2022-11-18T22:08:55.304Z,4.30
2022-11-18T22:19:03.632Z,3.13
2022-11-18T22:29:11.205Z,2.60
2022-11-18T22:39:14.206Z,2.47
2022-11-18T22:49:18.901Z,2.57
2022-11-18T22:59:22.460Z,2.00
2022-11-18T23:09:27.152Z,1.97
2022-11-18T23:19:30.106Z,2.20
2022-11-18T23:29:34.520Z,1.80
2022-11-18T23:39:37.590Z,1.70
2022-11-18T23:49:41.845Z,2.10
2022-11-18T23:59:44.919Z,1.70
